Time;durP1;ratioP1;P1;durP2;ratioP2;P2;SDS_P1;SDS_P2;PMS_P1;PMS_P2;Temp;Humidity;BMP_temperature;BMP_pressure;BME280_temperature;BME280_humidity;BME280_pressure;Samples;Min_cycle;Max_cycle;Signal;HPM_P1;HPM_P2
2021/05/06 00:00:17;;;;;;;10.23;2.30;;;;;;;4.54;67.47;99595.94;5094610;28;20192;-68
2021/05/06 00:05:58;;;;;;;9.83;2.27;;;;;;;4.50;68.00;99607.56;5096730;28;20165;-70
2021/05/06 00:30:15;;;;;;;12.37;2.83;;;;;;;4.29;68.68;99625.28;5097406;28;20167;-70
2021/05/06 00:32:44;;;;;;;9.90;2.27;;;;;;;4.29;68.81;99605.00;5098208;28;20240;-69
2021/05/06 00:35:11;;;;;;;11.03;2.20;;;;;;;4.31;68.50;99612.84;5096822;28;20201;-70
2021/05/06 00:37:46;;;;;;;10.27;2.57;;;;;;;4.32;67.69;99615.41;5097017;28;20194;-70
2021/05/06 00:40:14;;;;;;;9.37;2.17;;;;;;;4.33;68.32;99629.47;5097869;28;20170;-69
2021/05/06 00:54:29;;;;;;;10.43;2.57;;;;;;;4.14;68.77;99637.41;5054695;28;20778;-70
2021/05/06 01:04:37;;;;;;;11.87;2.60;;;;;;;4.36;68.03;99639.91;5093409;28;20276;-70
2021/05/06 01:07:37;;;;;;;12.43;2.40;;;;;;;4.43;67.01;99624.63;5097131;28;20189;-70
2021/05/06 01:12:34;;;;;;;11.53;2.10;;;;;;;4.49;66.71;99664.00;5096116;28;20168;-71
2021/05/06 01:15:00;;;;;;;13.27;3.03;;;;;;;4.51;66.35;99651.56;5095495;28;20182;-71
2021/05/06 01:17:29;;;;;;;7.30;1.80;;;;;;;4.50;66.67;99639.28;5098094;28;20174;-71
2021/05/06 01:19:54;;;;;;;9.23;2.23;;;;;;;4.46;67.24;99625.38;5097325;28;20177;-70
2021/05/06 01:22:20;;;;;;;11.30;2.10;;;;;;;4.46;67.28;99633.28;5096025;28;20547;-70
2021/05/06 01:24:50;;;;;;;14.77;2.80;;;;;;;4.48;66.92;99644.63;5096123;28;20190;-69
2021/05/06 01:27:21;;;;;;;9.83;2.37;;;;;;;4.50;66.15;99641.94;5096120;28;20579;-70
2021/05/06 01:29:59;;;;;;;19.13;2.87;;;;;;;4.45;66.77;99628.91;5097997;28;20166;-70
2021/05/06 01:32:39;;;;;;;7.70;1.83;;;;;;;4.41;65.84;99659.03;5096075;28;20207;-71
2021/05/06 01:35:08;;;;;;;9.60;2.10;;;;;;;4.32;66.85;99647.13;5095913;28;20238;-71
2021/05/06 01:40:36;;;;;;;8.47;2.83;;;;;;;4.13;68.42;99640.13;5098419;28;20189;-71
2021/05/06 01:48:53;;;;;;;16.27;2.93;;;;;;;4.18;67.67;99677.75;5096872;28;20199;-72
2021/05/06 02:02:02;;;;;;;12.27;2.37;;;;;;;4.26;67.90;99635.97;5100826;28;20522;-70
2021/05/06 02:04:28;;;;;;;14.83;2.17;;;;;;;4.21;67.76;99601.88;5099374;28;20204;-71
2021/05/06 02:06:53;;;;;;;8.90;1.83;;;;;;;4.16;68.39;99616.22;5100398;28;20254;-70
2021/05/06 02:09:19;;;;;;;9.83;1.87;;;;;;;4.10;68.46;99603.28;5099733;28;20184;-71
2021/05/06 02:11:44;;;;;;;6.70;1.57;;;;;;;4.04;68.57;99641.38;5097850;28;20208;-71
2021/05/06 02:14:10;;;;;;;16.37;2.30;;;;;;;4.08;68.49;99622.69;5100854;28;20203;-71
2021/05/06 02:16:38;;;;;;;10.23;2.63;;;;;;;4.08;68.48;99627.09;5098923;28;20668;-70
2021/05/06 02:19:05;;;;;;;7.50;2.27;;;;;;;4.07;68.16;99646.50;5099375;28;20185;-71
2021/05/06 02:21:31;;;;;;;8.50;2.37;;;;;;;4.06;68.21;99645.66;5098986;28;20174;-70
2021/05/06 02:23:56;;;;;;;7.07;2.20;;;;;;;4.05;68.56;99629.88;5098321;28;20251;-70
2021/05/06 02:26:21;;;;;;;10.33;2.17;;;;;;;4.00;68.42;99614.25;5098190;28;20264;-70
2021/05/06 02:28:47;;;;;;;9.83;2.07;;;;;;;4.02;68.48;99616.81;5096474;28;20248;-69
2021/05/06 02:31:14;;;;;;;12.70;2.27;;;;;;;4.01;68.72;99637.09;5098572;28;20189;-71
2021/05/06 02:33:48;;;;;;;7.33;2.17;;;;;;;3.97;68.79;99661.06;5099025;28;20712;-71
2021/05/06 02:36:14;;;;;;;11.57;2.50;;;;;;;3.87;69.41;99628.94;5096969;28;20157;-70
2021/05/06 02:38:39;;;;;;;12.37;2.10;;;;;;;3.87;69.10;99650.06;5096665;28;20176;-70
2021/05/06 02:41:05;;;;;;;9.43;1.97;;;;;;;3.83;69.38;99616.81;5095894;28;20177;-69
2021/05/06 02:43:30;;;;;;;10.47;2.70;;;;;;;3.75;69.52;99629.50;5094739;28;20755;-69
2021/05/06 02:45:55;;;;;;;13.80;2.10;;;;;;;3.71;69.81;99619.97;5095222;28;20227;-69
2021/05/06 02:48:21;;;;;;;13.90;2.40;;;;;;;3.69;69.64;99627.94;5094442;28;20212;-70
2021/05/06 02:50:52;;;;;;;10.53;2.43;;;;;;;3.62;70.56;99644.13;5094474;28;20182;-70
2021/05/06 02:53:19;;;;;;;13.27;2.63;;;;;;;3.58;70.39;99626.72;5095999;28;20235;-69
2021/05/06 03:04:01;;;;;;;11.10;2.00;;;;;;;3.46;70.85;99625.47;5095370;28;20204;-70
2021/05/06 03:06:29;;;;;;;14.83;2.33;;;;;;;3.50;70.69;99634.09;5095596;28;20198;-71
2021/05/06 03:08:59;;;;;;;7.07;2.43;;;;;;;3.48;70.88;99672.88;5077512;28;20216;-69
2021/05/06 03:24:56;;;;;;;11.60;1.97;;;;;;;3.56;70.29;99647.03;5095044;28;20228;-68
2021/05/06 03:27:27;;;;;;;9.20;2.00;;;;;;;3.62;70.40;99646.75;5077108;28;20210;-69
2021/05/06 03:30:07;;;;;;;13.33;2.13;;;;;;;3.68;70.58;99638.56;5095183;28;20165;-69
2021/05/06 03:32:58;;;;;;;8.33;2.10;;;;;;;3.67;70.59;99657.97;5093580;28;20175;-69
2021/05/06 03:35:56;;;;;;;8.87;1.80;;;;;;;3.59;70.95;99646.91;5093824;28;20185;-69
2021/05/06 03:44:00;;;;;;;6.43;1.80;;;;;;;3.56;70.20;99679.56;5093778;28;20265;-69
2021/05/06 03:46:56;;;;;;;17.00;2.63;;;;;;;3.56;70.99;99636.47;5093792;28;20248;-69
2021/05/06 04:03:29;;;;;;;10.60;2.50;;;;;;;3.59;71.35;99654.81;5094201;28;20209;-70
2021/05/06 04:14:43;;;;;;;14.67;2.27;;;;;;;3.55;71.42;99664.66;5093192;28;20243;-69
2021/05/06 04:17:27;;;;;;;8.73;2.27;;;;;;;3.55;71.23;99676.97;5093899;28;20178;-69
2021/05/06 04:38:47;;;;;;;9.17;2.47;;;;;;;3.71;71.83;99678.03;5069758;28;20212;-74
2021/05/06 04:54:34;;;;;;;8.23;2.00;;;;;;;3.84;71.16;99692.44;5093296;28;20620;-71
2021/05/06 05:04:55;;;;;;;10.43;1.80;;;;;;;4.03;70.02;99676.63;5093007;28;20161;-71
2021/05/06 05:07:25;;;;;;;7.47;2.00;;;;;;;4.00;70.03;99704.03;5092173;28;20205;-71
2021/05/06 05:10:01;;;;;;;10.40;1.87;;;;;;;3.96;70.33;99731.47;5093407;28;20173;-71
2021/05/06 05:12:45;;;;;;;11.40;2.23;;;;;;;4.02;70.00;99715.38;5092376;28;20164;-71
2021/05/06 05:18:03;;;;;;;13.57;2.43;;;;;;;4.11;69.51;99693.00;5093100;28;20483;-69
2021/05/06 05:26:01;;;;;;;6.97;1.97;;;;;;;4.28;69.52;99713.38;5091624;28;20514;-71
2021/05/06 05:28:26;;;;;;;10.23;1.73;;;;;;;4.37;69.00;99697.09;5091964;28;20190;-71
2021/05/06 05:30:51;;;;;;;11.63;3.10;;;;;;;4.40;69.63;99696.97;5093472;28;20238;-71
2021/05/06 05:33:20;;;;;;;9.00;2.30;;;;;;;4.42;69.39;99705.66;5091950;28;20193;-71
2021/05/06 05:36:08;;;;;;;10.43;2.30;;;;;;;4.51;69.07;99704.41;5077487;28;20645;-71
2021/05/06 05:38:41;;;;;;;16.63;2.60;;;;;;;4.54;68.65;99705.13;5097024;28;20172;-70
2021/05/06 05:54:38;;;;;;;11.57;2.07;;;;;;;4.96;66.55;99696.09;5096792;28;20250;-70
2021/05/06 05:57:10;;;;;;;16.20;2.87;;;;;;;4.89;66.27;99751.06;5097023;28;20150;-71
2021/05/06 05:59:37;;;;;;;13.87;2.30;;;;;;;4.92;65.96;99719.19;5096056;28;20162;-71
2021/05/06 06:02:03;;;;;;;10.30;2.27;;;;;;;5.12;65.62;99727.94;5095767;28;20173;-71
2021/05/06 06:04:28;;;;;;;12.27;2.43;;;;;;;5.23;65.86;99713.31;5095392;28;20186;-71
2021/05/06 06:06:53;;;;;;;10.57;2.20;;;;;;;5.22;65.19;99705.44;5096677;28;20178;-71
2021/05/06 06:09:19;;;;;;;11.97;2.13;;;;;;;5.17;65.84;99750.59;5095181;28;20580;-69
2021/05/06 06:11:44;;;;;;;11.30;2.20;;;;;;;5.09;65.60;99736.91;5095586;28;20710;-71
2021/05/06 06:14:10;;;;;;;10.50;2.20;;;;;;;5.21;65.25;99728.41;5096681;28;20186;-71
2021/05/06 06:16:37;;;;;;;8.83;2.13;;;;;;;5.29;65.59;99731.53;5077721;28;20170;-71
2021/05/06 06:19:03;;;;;;;10.07;2.50;;;;;;;5.27;65.39;99722.81;5096229;28;20253;-70
2021/05/06 06:21:49;;;;;;;9.17;1.90;;;;;;;5.27;65.44;99727.25;5095031;28;20190;-71
2021/05/06 06:24:15;;;;;;;5.23;2.30;;;;;;;5.26;65.24;99755.47;5095425;28;20551;-70
2021/05/06 06:26:40;;;;;;;9.60;2.40;;;;;;;5.51;64.81;99723.38;5094930;28;20170;-71
2021/05/06 06:29:08;;;;;;;13.47;2.00;;;;;;;5.54;64.69;99731.16;5095522;28;20174;-71
2021/05/06 06:31:39;;;;;;;9.20;2.47;;;;;;;5.55;62.75;99724.06;5095466;28;20175;-71
2021/05/06 06:34:05;;;;;;;7.53;1.90;;;;;;;5.57;62.79;99731.00;5094746;28;20186;-70
2021/05/06 06:36:30;;;;;;;10.63;2.10;;;;;;;5.55;63.54;99732.00;5077675;28;20174;-70
2021/05/06 06:38:56;;;;;;;8.93;1.60;;;;;;;5.49;62.35;99724.38;5095876;28;20522;-71
2021/05/06 06:41:21;;;;;;;8.93;2.40;;;;;;;5.43;63.55;99744.06;5095855;28;20175;-70
2021/05/06 06:43:50;;;;;;;9.60;2.13;;;;;;;5.71;62.70;99716.22;5094825;28;20689;-71
2021/05/06 06:46:16;;;;;;;13.90;2.33;;;;;;;5.68;63.33;99727.84;5078013;28;20190;-71
2021/05/06 06:48:42;;;;;;;7.23;1.90;;;;;;;5.79;62.63;99728.13;5096490;28;20233;-71
2021/05/06 06:51:07;;;;;;;5.93;1.80;;;;;;;5.98;61.83;99714.00;5096663;28;20178;-72
2021/05/06 06:53:32;;;;;;;8.97;1.93;;;;;;;5.83;62.21;99732.34;5094499;28;20212;-70
2021/05/06 06:55:59;;;;;;;9.17;2.00;;;;;;;5.77;61.58;99732.66;5094528;28;20210;-71
2021/05/06 06:58:24;;;;;;;9.90;1.97;;;;;;;5.83;61.95;99735.00;5095971;28;20174;-71
2021/05/06 07:00:50;;;;;;;7.60;1.80;;;;;;;5.94;61.60;99716.78;5094504;28;20223;-71
2021/05/06 07:03:16;;;;;;;5.70;1.67;;;;;;;6.08;60.14;99699.34;5077432;28;20201;-71
2021/05/06 07:05:42;;;;;;;8.50;2.30;;;;;;;6.17;60.94;99730.63;5077481;28;20235;-71
2021/05/06 07:08:24;;;;;;;9.07;1.90;;;;;;;6.23;59.84;99728.53;5094490;28;20201;-71
2021/05/06 07:10:52;;;;;;;8.93;1.60;;;;;;;6.17;60.61;99709.44;5095879;28;20619;-71
2021/05/06 07:13:18;;;;;;;5.40;1.60;;;;;;;6.24;60.21;99721.44;5094463;28;20213;-70
2021/05/06 07:15:51;;;;;;;5.93;1.70;;;;;;;6.24;59.33;99714.34;5095136;28;20658;-71
2021/05/06 07:18:17;;;;;;;12.63;2.07;;;;;;;6.21;58.90;99738.34;5095695;28;20223;-71
2021/05/06 07:20:43;;;;;;;12.57;2.00;;;;;;;6.29;59.65;99748.53;5094387;28;20171;-71
2021/05/06 07:23:12;;;;;;;9.00;1.80;;;;;;;6.34;59.46;99735.06;5095258;28;20190;-71
2021/05/06 07:25:38;;;;;;;8.63;1.90;;;;;;;6.42;58.23;99760.22;5093740;28;20178;-70
2021/05/06 07:28:12;;;;;;;9.00;2.10;;;;;;;6.22;58.19;99768.34;5093715;28;20570;-70
2021/05/06 07:30:37;;;;;;;7.70;2.30;;;;;;;6.47;58.06;99750.22;5093839;28;20170;-71
2021/05/06 07:33:03;;;;;;;9.47;2.03;;;;;;;6.44;57.52;99774.25;5093834;28;20696;-71
2021/05/06 07:35:28;;;;;;;12.53;1.90;;;;;;;6.38;57.42;99718.91;5095106;28;20304;-71
2021/05/06 07:37:53;;;;;;;8.47;2.23;;;;;;;6.38;57.74;99745.44;5094791;28;20179;-71
2021/05/06 07:40:18;;;;;;;10.87;2.07;;;;;;;6.46;58.19;99737.06;5094582;28;20186;-71
2021/05/06 07:42:44;;;;;;;7.87;1.70;;;;;;;6.84;57.52;99745.59;5094455;28;20282;-71
2021/05/06 07:45:10;;;;;;;5.43;1.40;;;;;;;6.89;55.20;99746.19;5076423;28;20335;-71
2021/05/06 07:47:35;;;;;;;6.77;1.97;;;;;;;6.73;55.81;99751.50;5094279;28;20198;-71
2021/05/06 07:50:01;;;;;;;4.60;1.50;;;;;;;6.82;56.29;99755.44;5094138;28;20174;-72
2021/05/06 07:52:26;;;;;;;7.10;1.73;;;;;;;7.01;56.02;99758.78;5093270;28;20257;-71
2021/05/06 07:54:52;;;;;;;7.90;1.60;;;;;;;7.18;56.27;99761.38;5094399;28;20206;-71
2021/05/06 07:57:18;;;;;;;7.20;2.17;;;;;;;7.38;56.03;99754.91;5093796;28;20170;-71
2021/05/06 07:59:43;;;;;;;6.83;1.67;;;;;;;7.46;55.51;99754.50;5094497;28;20170;-71
2021/05/06 08:02:08;;;;;;;7.97;1.90;;;;;;;7.46;54.85;99759.81;5092901;28;20538;-71
2021/05/06 08:04:34;;;;;;;11.07;2.30;;;;;;;7.34;54.95;99736.59;5076108;28;20202;-71
2021/05/06 08:06:59;;;;;;;6.17;1.67;;;;;;;7.44;55.15;99749.28;5094285;28;20189;-72
2021/05/06 08:09:24;;;;;;;8.77;1.93;;;;;;;7.64;53.63;99785.31;5092869;28;20584;-72
2021/05/06 08:11:52;;;;;;;5.80;1.57;;;;;;;7.41;54.68;99735.31;5076350;28;20170;-72
2021/05/06 08:14:17;;;;;;;8.07;1.90;;;;;;;7.54;55.12;99746.97;5092312;28;20195;-71
2021/05/06 08:16:43;;;;;;;8.87;2.20;;;;;;;7.90;54.88;99743.09;5075508;28;20185;-72
2021/05/06 08:19:08;;;;;;;7.10;1.60;;;;;;;7.96;53.47;99778.13;5092553;28;20183;-72
2021/05/06 08:21:33;;;;;;;12.73;1.73;;;;;;;7.89;53.72;99749.38;5093982;28;20173;-72
2021/05/06 08:23:58;;;;;;;5.23;1.67;;;;;;;7.58;51.32;99753.81;5092189;28;20267;-70
2021/05/06 08:26:27;;;;;;;10.00;1.60;;;;;;;7.36;52.84;99751.50;5075154;28;20175;-71
2021/05/06 08:28:53;;;;;;;6.67;1.60;;;;;;;7.32;53.77;99778.31;5092459;28;20226;-72
2021/05/06 08:31:18;;;;;;;5.97;2.27;;;;;;;7.67;53.63;99769.19;5075502;28;20207;-71
2021/05/06 08:33:43;;;;;;;9.03;1.70;;;;;;;7.89;52.47;99781.25;5092211;28;20200;-71
2021/05/06 08:36:09;;;;;;;7.97;1.53;;;;;;;7.97;51.07;99755.94;5093679;28;20225;-72
2021/05/06 08:38:35;;;;;;;8.57;1.87;;;;;;;7.87;49.48;99801.72;5093741;28;20180;-71
2021/05/06 08:41:00;;;;;;;6.53;1.53;;;;;;;7.66;50.39;99780.75;5092562;28;20671;-72
2021/05/06 08:43:30;;;;;;;7.90;2.00;;;;;;;8.02;50.24;99766.28;5093671;28;20198;-72
2021/05/06 08:45:57;;;;;;;8.10;2.10;;;;;;;8.26;49.68;99748.03;5093044;28;20184;-71
2021/05/06 08:48:23;;;;;;;7.53;1.60;;;;;;;8.12;49.40;99808.16;5093556;28;20283;-71
2021/05/06 08:50:49;;;;;;;11.10;1.83;;;;;;;8.21;48.95;99774.03;5075328;28;20668;-71
2021/05/06 08:53:16;;;;;;;7.63;1.97;;;;;;;8.29;47.99;99759.31;5093621;28;20206;-72
2021/05/06 08:55:44;;;;;;;5.00;1.40;;;;;;;7.88;50.69;99795.47;5093751;28;20215;-72
2021/05/06 08:58:09;;;;;;;7.60;2.43;;;;;;;8.34;49.89;99805.13;5092376;28;20221;-71
2021/05/06 09:00:35;;;;;;;7.57;1.50;;;;;;;8.38;49.12;99787.19;5093569;28;20171;-72
2021/05/06 09:03:00;;;;;;;5.60;1.73;;;;;;;8.58;49.58;99801.94;5092048;28;20566;-72
2021/05/06 09:05:25;;;;;;;8.70;1.40;;;;;;;9.08;49.36;99789.00;5093565;28;20188;-71
2021/05/06 09:07:51;;;;;;;5.23;2.00;;;;;;;8.84;47.93;99793.19;5092991;28;20277;-73
2021/05/06 09:10:37;;;;;;;4.83;1.47;;;;;;;8.83;48.41;99796.81;5074775;28;20584;-71
2021/05/06 09:13:03;;;;;;;6.33;1.83;;;;;;;8.85;49.73;99792.25;5092320;28;20196;-72
2021/05/06 09:15:29;;;;;;;4.93;1.30;;;;;;;8.52;49.40;99796.97;5091702;28;20185;-72
2021/05/06 09:17:54;;;;;;;10.57;1.70;;;;;;;8.67;49.81;99796.91;5091981;28;20182;-72
2021/05/06 09:20:22;;;;;;;5.43;1.57;;;;;;;9.00;49.09;99791.31;5093680;28;20181;-73
2021/05/06 09:22:56;;;;;;;5.20;1.73;;;;;;;9.06;47.57;99801.56;5092908;28;20174;-73
2021/05/06 09:25:37;;;;;;;9.57;1.73;;;;;;;8.75;46.57;99801.75;5093681;28;20184;-72
2021/05/06 09:28:14;;;;;;;6.53;1.80;;;;;;;8.59;48.48;99815.16;5091965;28;20206;-72
2021/05/06 09:30:59;;;;;;;7.50;1.53;;;;;;;8.75;47.28;99807.94;5092480;28;20182;-74
2021/05/06 09:33:41;;;;;;;6.03;1.90;;;;;;;9.14;46.20;99786.91;5092400;28;20248;-73
2021/05/06 09:36:09;;;;;;;6.30;1.77;;;;;;;8.85;45.81;99799.38;5093632;28;20181;-72
2021/05/06 09:38:43;;;;;;;3.90;1.23;;;;;;;9.05;46.40;99810.50;5093537;28;20224;-73
2021/05/06 09:41:09;;;;;;;5.00;1.60;;;;;;;9.33;46.67;99796.31;5093256;28;20182;-72
2021/05/06 09:43:42;;;;;;;11.83;4.90;;;;;;;9.46;46.60;99807.00;5092542;28;20223;-72
2021/05/06 09:46:26;;;;;;;3.77;1.80;;;;;;;9.33;45.43;99812.28;5094963;28;20196;-72
2021/05/06 09:49:08;;;;;;;9.10;2.73;;;;;;;9.12;46.27;99831.41;5095408;28;20208;-74
2021/05/06 09:51:40;;;;;;;8.87;2.17;;;;;;;8.80;46.76;99846.69;5096228;28;20161;-73
2021/05/06 09:54:07;;;;;;;7.97;3.20;;;;;;;8.91;47.63;99820.28;5094846;28;20206;-73
2021/05/06 09:56:33;;;;;;;23.37;11.63;;;;;;;8.73;48.41;99796.53;5076806;28;20230;-73
2021/05/06 09:58:58;;;;;;;16.30;6.77;;;;;;;8.70;47.45;99825.97;5092460;28;20173;-71
2021/05/06 10:01:40;;;;;;;14.67;5.70;;;;;;;8.72;48.35;99812.59;5091766;28;20179;-72
2021/05/06 10:04:22;;;;;;;10.50;4.07;;;;;;;9.44;47.10;99814.25;5091785;28;20193;-72
2021/05/06 10:07:23;;;;;;;14.37;4.70;;;;;;;9.34;45.24;99815.81;5091897;28;20216;-73
2021/05/06 10:09:56;;;;;;;6.27;1.87;;;;;;;9.56;45.03;99812.59;5075292;28;20587;-72
2021/05/06 10:12:30;;;;;;;5.67;1.70;;;;;;;10.01;44.53;99806.03;5093129;28;20819;-73
2021/05/06 10:14:56;;;;;;;7.10;2.10;;;;;;;9.98;44.39;99811.59;5093038;28;20279;-74
2021/05/06 10:17:22;;;;;;;6.77;1.93;;;;;;;10.00;42.24;99837.19;5093006;28;20665;-73
2021/05/06 10:19:48;;;;;;;7.03;2.00;;;;;;;9.51;43.79;99823.56;5075723;28;20186;-74
2021/05/06 10:22:15;;;;;;;3.47;1.33;;;;;;;9.31;44.08;99811.53;5096930;28;20177;-72
2021/05/06 10:24:45;;;;;;;9.23;2.63;;;;;;;9.12;45.58;99812.78;5097025;28;20557;-71
2021/05/06 10:27:12;;;;;;;7.60;2.87;;;;;;;8.82;46.34;99800.41;5095428;28;20200;-71
2021/05/06 10:29:38;;;;;;;4.80;1.87;;;;;;;8.92;45.59;99838.84;5095079;28;20170;-73
2021/05/06 10:32:03;;;;;;;4.30;1.83;;;;;;;9.01;44.28;99816.97;5095796;28;20191;-72
2021/05/06 10:34:33;;;;;;;5.03;1.30;;;;;;;9.34;44.16;99829.13;5096224;28;20194;-73
2021/05/06 10:36:59;;;;;;;7.10;1.80;;;;;;;9.57;44.24;99827.63;5094959;28;20564;-72
2021/05/06 10:39:36;;;;;;;5.07;1.80;;;;;;;9.32;43.46;99815.91;5094778;28;20205;-72
2021/05/06 10:42:27;;;;;;;5.67;1.43;;;;;;;9.51;43.73;99836.88;5096715;28;20175;-72
2021/05/06 10:44:53;;;;;;;8.53;1.60;;;;;;;9.85;42.97;99830.22;5096031;28;20208;-72
2021/05/06 10:47:41;;;;;;;5.23;1.50;;;;;;;9.80;42.95;99826.13;5094919;28;20205;-72
2021/05/06 10:50:19;;;;;;;8.00;1.60;;;;;;;10.12;41.86;99837.34;5096321;28;20588;-73
2021/05/06 10:52:53;;;;;;;5.70;1.93;;;;;;;9.67;42.07;99842.09;5096525;28;20245;-74
2021/05/06 10:55:47;;;;;;;7.97;1.50;;;;;;;9.90;42.18;99828.09;5094810;28;20173;-72
2021/05/06 10:58:22;;;;;;;5.40;1.20;;;;;;;10.32;40.90;99834.22;5096054;28;20190;-73
2021/05/06 11:01:16;;;;;;;8.87;1.33;;;;;;;12.20;37.84;99830.50;5095790;28;20169;-72
2021/05/06 11:03:42;;;;;;;5.80;1.73;;;;;;;13.81;34.31;99842.84;5087080;28;20718;-72
2021/05/06 11:06:09;;;;;;;3.77;1.23;;;;;;;13.65;32.26;99850.44;5094458;28;20181;-73
2021/05/06 11:08:35;;;;;;;6.63;1.40;;;;;;;13.16;32.21;99835.56;5094377;28;20662;-72
2021/05/06 11:11:01;;;;;;;5.13;1.60;;;;;;;12.93;34.28;99804.38;5094186;28;20674;-72
2021/05/06 11:13:28;;;;;;;8.90;1.33;;;;;;;15.42;31.37;99827.31;5093916;28;20274;-72
2021/05/06 11:16:14;;;;;;;3.87;1.00;;;;;;;14.50;30.45;99827.25;5093987;28;20178;-72
2021/05/06 11:18:44;;;;;;;3.70;1.40;;;;;;;14.74;30.64;99804.63;5094500;28;20234;-73
2021/05/06 11:21:30;;;;;;;3.37;1.27;;;;;;;13.97;31.22;99816.47;5077252;28;20539;-73
2021/05/06 11:24:12;;;;;;;11.23;1.77;;;;;;;13.81;32.57;99823.22;5094965;28;20578;-72
2021/05/06 11:26:59;;;;;;;5.27;1.50;;;;;;;12.37;33.28;99801.63;5093766;28;20167;-73
2021/05/06 11:29:28;;;;;;;6.87;1.60;;;;;;;11.51;35.05;99828.50;5095312;28;20587;-72
2021/05/06 11:31:53;;;;;;;10.33;1.37;;;;;;;10.86;36.34;99824.25;5093185;28;20178;-73
2021/05/06 11:34:38;;;;;;;3.07;1.23;;;;;;;10.73;37.28;99844.72;5092925;28;20240;-72
2021/05/06 11:37:12;;;;;;;7.27;2.07;;;;;;;10.69;38.12;99831.69;5094285;28;20515;-73
2021/05/06 11:40:08;;;;;;;6.73;1.47;;;;;;;10.39;38.10;99837.31;5093814;28;20196;-73
2021/05/06 11:42:39;;;;;;;6.23;1.70;;;;;;;10.54;38.05;99820.28;5093678;28;20170;-72
2021/05/06 11:45:17;;;;;;;3.50;1.73;;;;;;;11.87;35.62;99831.19;5094003;28;20620;-73
2021/05/06 11:47:42;;;;;;;4.30;1.50;;;;;;;13.06;34.38;99829.25;5093682;28;20197;-73
2021/05/06 11:50:19;;;;;;;5.67;1.53;;;;;;;13.76;32.82;99834.34;5093735;28;20170;-73
2021/05/06 11:52:45;;;;;;;8.13;1.57;;;;;;;14.46;30.87;99828.47;5093276;28;20162;-73
2021/05/06 11:55:32;;;;;;;5.50;1.83;;;;;;;14.50;30.50;99819.19;5094376;28;20211;-73
2021/05/06 11:57:57;;;;;;;5.97;1.43;;;;;;;15.36;28.14;99833.25;5097786;28;20159;-73
2021/05/06 12:00:26;;;;;;;6.00;1.70;;;;;;;13.06;31.70;99823.88;5095044;28;20174;-73
2021/05/06 12:02:57;;;;;;;2.80;1.23;;;;;;;13.71;31.14;99853.47;5095354;28;20546;-73
2021/05/06 12:05:23;;;;;;;4.77;1.27;;;;;;;13.25;32.31;99845.59;5094428;28;20638;-73
2021/05/06 12:08:02;;;;;;;3.90;1.30;;;;;;;14.57;29.77;99830.25;5094627;28;20193;-73
2021/05/06 12:10:27;;;;;;;4.70;1.30;;;;;;;15.49;28.14;99829.31;5093011;28;20170;-73
2021/05/06 12:13:02;;;;;;;4.30;1.20;;;;;;;16.16;26.13;99838.53;5075899;28;20319;-73
2021/05/06 12:15:27;;;;;;;3.40;1.17;;;;;;;15.97;26.61;99804.38;5092892;28;20185;-73
2021/05/06 12:18:19;;;;;;;6.27;1.97;;;;;;;17.25;24.69;99799.53;5092929;28;20171;-73
2021/05/06 12:20:52;;;;;;;4.43;1.23;;;;;;;17.53;23.06;99821.97;5093822;28;20201;-74
2021/05/06 12:23:18;;;;;;;5.80;2.00;;;;;;;17.42;23.37;99831.09;5075626;28;20201;-73
2021/05/06 12:25:43;;;;;;;4.43;1.50;;;;;;;16.60;24.62;99825.50;5076129;28;20174;-73
2021/05/06 12:28:09;;;;;;;5.40;1.03;;;;;;;16.86;24.86;99832.84;5092506;28;20200;-73
2021/05/06 12:30:34;;;;;;;4.00;1.27;;;;;;;16.45;25.28;99828.63;5093065;28;20220;-73
2021/05/06 12:32:59;;;;;;;2.90;1.07;;;;;;;17.50;24.79;99821.28;5097033;28;20190;-73
2021/05/06 12:35:25;;;;;;;3.33;0.80;;;;;;;16.78;24.36;99791.47;5097026;28;20191;-75
2021/05/06 12:37:52;;;;;;;3.77;1.10;;;;;;;17.81;23.78;99802.94;5095288;28;20638;-73
2021/05/06 12:40:18;;;;;;;1.83;1.03;;;;;;;17.69;23.48;99823.03;5095223;28;20166;-73
2021/05/06 12:42:43;;;;;;;3.30;1.20;;;;;;;17.55;23.66;99809.19;5108594;28;20261;-72
2021/05/06 12:45:15;;;;;;;4.70;1.20;;;;;;;14.82;26.34;99820.94;5093913;28;20561;-73
2021/05/06 12:47:44;;;;;;;4.03;1.83;;;;;;;14.75;27.77;99811.72;5093197;28;20243;-71
2021/05/06 12:50:13;;;;;;;5.37;0.93;;;;;;;13.28;27.91;99817.69;5091965;28;20171;-72
2021/05/06 12:52:41;;;;;;;6.43;1.37;;;;;;;12.18;29.88;99828.91;5075153;28;20324;-72
2021/05/06 12:55:21;;;;;;;3.63;1.43;;;;;;;14.37;28.24;99813.13;5092217;28;20167;-71
2021/05/06 12:58:16;;;;;;;4.47;2.47;;;;;;;17.26;24.85;99802.06;5093439;28;20166;-72
2021/05/06 13:00:56;;;;;;;4.73;1.27;;;;;;;18.12;23.16;99813.38;5093643;28;20660;-71
2021/05/06 13:03:28;;;;;;;2.77;1.37;;;;;;;17.46;22.17;99803.66;5094141;28;20186;-72
2021/05/06 13:05:53;;;;;;;5.40;1.50;;;;;;;16.62;24.15;99796.56;5092164;28;20189;-72
2021/05/06 13:08:42;;;;;;;5.67;1.20;;;;;;;17.56;22.93;99797.41;5091685;28;20190;-73
2021/05/06 13:11:09;;;;;;;2.53;1.00;;;;;;;17.31;21.83;99810.56;5093056;28;20564;-73
2021/05/06 13:13:46;;;;;;;4.80;1.50;;;;;;;18.27;22.33;99784.00;5092200;28;20186;-71
2021/05/06 13:16:13;;;;;;;5.30;1.30;;;;;;;17.10;22.03;99800.03;5092230;28;20217;-71
2021/05/06 13:18:38;;;;;;;2.67;0.80;;;;;;;18.40;21.30;99790.69;5074906;28;20158;-71
2021/05/06 13:21:05;;;;;;;5.60;1.97;;;;;;;17.33;22.98;99815.81;5074969;28;20181;-72
2021/05/06 13:23:35;;;;;;;4.47;2.10;;;;;;;17.90;21.22;99812.00;5091710;28;20285;-70
2021/05/06 13:26:01;;;;;;;3.13;1.20;;;;;;;18.67;21.70;99783.50;5091647;28;20158;-72
2021/05/06 13:28:33;;;;;;;4.30;1.50;;;;;;;18.36;21.75;99780.34;5092778;28;20201;-71
2021/05/06 13:31:17;;;;;;;6.27;1.30;;;;;;;18.21;21.78;99788.16;5093182;28;20171;-71
2021/05/06 13:33:44;;;;;;;3.30;1.30;;;;;;;15.48;25.08;99795.34;5092143;28;20197;-71
2021/05/06 13:36:11;;;;;;;9.13;1.30;;;;;;;14.07;26.94;99801.28;5091347;28;20275;-71
2021/05/06 13:38:57;;;;;;;8.13;1.50;;;;;;;12.91;28.91;99785.75;5092771;28;20561;-71
2021/05/06 13:41:23;;;;;;;3.47;1.40;;;;;;;12.55;30.00;99800.19;5091529;28;20159;-70
2021/05/06 13:43:49;;;;;;;4.63;1.37;;;;;;;12.31;31.23;99794.06;5092596;28;20214;-70
2021/05/06 13:46:15;;;;;;;7.87;1.80;;;;;;;12.14;32.91;99788.16;5092852;28;20593;-71
2021/05/06 13:48:41;;;;;;;4.60;1.17;;;;;;;14.07;31.07;99790.56;5092674;28;20566;-71
2021/05/06 13:51:11;;;;;;;6.43;1.43;;;;;;;15.61;28.25;99813.97;5074809;28;20173;-70
2021/05/06 13:53:38;;;;;;;6.17;1.90;;;;;;;17.13;25.66;99801.56;5092465;28;20228;-71
2021/05/06 13:56:05;;;;;;;6.33;1.50;;;;;;;17.91;25.17;99778.59;5092191;28;20170;-70
2021/05/06 13:58:30;;;;;;;6.80;1.57;;;;;;;18.52;23.85;99795.81;5095506;28;20511;-70
2021/05/06 14:00:55;;;;;;;4.80;1.20;;;;;;;18.54;22.64;99791.13;5097060;28;20185;-71
2021/05/06 14:03:20;;;;;;;2.97;1.20;;;;;;;18.79;22.45;99798.44;5096371;28;20190;-70
2021/05/06 14:05:46;;;;;;;7.10;3.57;;;;;;;18.94;22.17;99777.91;5096332;28;20642;-70
2021/05/06 14:08:14;;;;;;;5.70;2.17;;;;;;;19.70;22.07;99776.22;5096193;28;20657;-70
2021/05/06 14:10:40;;;;;;;3.20;1.53;;;;;;;19.97;19.83;99792.22;5094961;28;20181;-70
2021/05/06 14:13:05;;;;;;;4.57;1.07;;;;;;;18.49;21.12;99810.50;5095213;28;20247;-70
2021/05/06 14:15:31;;;;;;;5.73;2.00;;;;;;;17.06;22.61;99763.56;5096390;28;20658;-72
2021/05/06 14:17:56;;;;;;;3.33;1.20;;;;;;;15.01;25.80;99770.00;5078202;28;20166;-72
2021/05/06 14:20:22;;;;;;;3.90;1.60;;;;;;;16.74;24.11;99763.97;5096174;28;20181;-71
2021/05/06 14:22:47;;;;;;;2.87;1.33;;;;;;;17.44;23.94;99791.34;5096116;28;20534;-71
2021/05/06 14:25:12;;;;;;;4.43;1.20;;;;;;;18.22;21.96;99762.00;5077913;28;20174;-71
2021/05/06 14:27:38;;;;;;;3.07;1.40;;;;;;;18.69;22.61;99765.25;5094978;28;20190;-72
2021/05/06 14:30:04;;;;;;;3.07;1.20;;;;;;;18.76;21.76;99773.56;5077873;28;20182;-71
2021/05/06 14:32:29;;;;;;;4.97;1.13;;;;;;;19.32;21.95;99754.94;5095938;28;20170;-71
2021/05/06 14:34:55;;;;;;;5.23;1.30;;;;;;;18.22;22.31;99756.59;5096090;28;20198;-71
2021/05/06 14:37:23;;;;;;;2.43;1.10;;;;;;;15.42;24.94;99766.31;5096070;28;20651;-71
2021/05/06 14:39:49;;;;;;;3.30;1.30;;;;;;;13.85;26.47;99771.88;5096056;28;20178;-70
2021/05/06 14:42:14;;;;;;;5.40;1.90;;;;;;;13.08;27.76;99784.44;5094647;28;20178;-70
2021/05/06 14:44:39;;;;;;;5.03;2.33;;;;;;;14.05;26.47;99762.16;5096020;28;20596;-71
2021/05/06 14:47:05;;;;;;;3.73;1.73;;;;;;;16.40;23.85;99760.91;5095025;28;20166;-71